sensor_id;sensor_type;location;lat;lon;timestamp;P1;durP1;ratioP1;P2;durP2;ratioP2
33501;SDS011;22396;51.070;4.974;2023-07-20T00:01:30;5.65;;;2.28;;
33501;SDS011;22396;51.070;4.974;2023-07-20T00:03:55;4.22;;;1.75;;
33501;SDS011;22396;51.070;4.974;2023-07-20T00:06:24;4.13;;;2.10;;
33501;SDS011;22396;51.070;4.974;2023-07-20T00:08:53;5.35;;;2.25;;
33501;SDS011;22396;51.070;4.974;2023-07-20T00:11:19;4.47;;;1.95;;
33501;SDS011;22396;51.070;4.974;2023-07-20T00:13:44;5.05;;;1.90;;
33501;SDS011;22396;51.070;4.974;2023-07-20T00:16:09;4.20;;;1.67;;
33501;SDS011;22396;51.070;4.974;2023-07-20T00:18:35;5.47;;;2.13;;
33501;SDS011;22396;51.070;4.974;2023-07-20T00:21:00;5.32;;;1.83;;
33501;SDS011;22396;51.070;4.974;2023-07-20T00:23:26;8.10;;;2.10;;
33501;SDS011;22396;51.070;4.974;2023-07-20T00:25:52;3.83;;;1.83;;
33501;SDS011;22396;51.070;4.974;2023-07-20T00:28:17;10.40;;;2.13;;
33501;SDS011;22396;51.070;4.974;2023-07-20T00:30:42;3.88;;;1.88;;
33501;SDS011;22396;51.070;4.974;2023-07-20T00:33:11;18.20;;;2.05;;
33501;SDS011;22396;51.070;4.974;2023-07-20T00:35:37;3.20;;;1.60;;
33501;SDS011;22396;51.070;4.974;2023-07-20T00:38:03;5.85;;;2.03;;
33501;SDS011;22396;51.070;4.974;2023-07-20T00:40:28;5.25;;;1.75;;
33501;SDS011;22396;51.070;4.974;2023-07-20T00:42:54;10.32;;;2.13;;
33501;SDS011;22396;51.070;4.974;2023-07-20T00:45:28;7.45;;;2.05;;
33501;SDS011;22396;51.070;4.974;2023-07-20T00:47:54;5.93;;;2.65;;
33501;SDS011;22396;51.070;4.974;2023-07-20T00:50:23;9.43;;;1.88;;
33501;SDS011;22396;51.070;4.974;2023-07-20T00:52:49;5.53;;;1.88;;
33501;SDS011;22396;51.070;4.974;2023-07-20T00:55:14;13.05;;;2.28;;
33501;SDS011;22396;51.070;4.974;2023-07-20T00:57:40;7.20;;;1.85;;
33501;SDS011;22396;51.070;4.974;2023-07-20T01:00:06;8.73;;;2.33;;
33501;SDS011;22396;51.070;4.974;2023-07-20T01:02:31;9.15;;;2.28;;
33501;SDS011;22396;51.070;4.974;2023-07-20T01:04:56;6.35;;;2.03;;
33501;SDS011;22396;51.070;4.974;2023-07-20T01:07:26;10.38;;;2.38;;
33501;SDS011;22396;51.070;4.974;2023-07-20T01:12:47;7.68;;;2.35;;
33501;SDS011;22396;51.070;4.974;2023-07-20T01:15:14;4.68;;;1.85;;
33501;SDS011;22396;51.070;4.974;2023-07-20T01:17:40;6.97;;;2.22;;
33501;SDS011;22396;51.070;4.974;2023-07-20T01:20:15;7.23;;;2.37;;
33501;SDS011;22396;51.070;4.974;2023-07-20T01:25:28;5.15;;;2.65;;
33501;SDS011;22396;51.070;4.974;2023-07-20T01:33:08;5.93;;;2.22;;
33501;SDS011;22396;51.070;4.974;2023-07-20T01:35:34;7.32;;;2.60;;
33501;SDS011;22396;51.070;4.974;2023-07-20T01:37:59;5.28;;;2.22;;
33501;SDS011;22396;51.070;4.974;2023-07-20T01:40:25;6.13;;;2.85;;
33501;SDS011;22396;51.070;4.974;2023-07-20T01:43:12;7.70;;;2.65;;
33501;SDS011;22396;51.070;4.974;2023-07-20T01:45:39;6.78;;;2.55;;
33501;SDS011;22396;51.070;4.974;2023-07-20T01:48:06;9.05;;;2.40;;
33501;SDS011;22396;51.070;4.974;2023-07-20T01:50:32;5.03;;;2.53;;
33501;SDS011;22396;51.070;4.974;2023-07-20T01:52:59;8.50;;;2.90;;
33501;SDS011;22396;51.070;4.974;2023-07-20T01:55:24;4.80;;;2.10;;
33501;SDS011;22396;51.070;4.974;2023-07-20T01:57:50;7.82;;;2.65;;
33501;SDS011;22396;51.070;4.974;2023-07-20T02:00:15;7.70;;;3.10;;
33501;SDS011;22396;51.070;4.974;2023-07-20T02:02:41;8.35;;;2.72;;
33501;SDS011;22396;51.070;4.974;2023-07-20T02:05:06;6.35;;;2.50;;
33501;SDS011;22396;51.070;4.974;2023-07-20T02:07:31;10.05;;;2.95;;
33501;SDS011;22396;51.070;4.974;2023-07-20T02:09:57;7.63;;;2.55;;
33501;SDS011;22396;51.070;4.974;2023-07-20T02:12:22;6.65;;;2.92;;
33501;SDS011;22396;51.070;4.974;2023-07-20T02:14:47;8.80;;;2.83;;
33501;SDS011;22396;51.070;4.974;2023-07-20T02:17:13;5.28;;;2.47;;
33501;SDS011;22396;51.070;4.974;2023-07-20T02:19:38;7.32;;;2.85;;
33501;SDS011;22396;51.070;4.974;2023-07-20T02:22:04;6.43;;;2.65;;
33501;SDS011;22396;51.070;4.974;2023-07-20T02:24:29;5.57;;;2.42;;
33501;SDS011;22396;51.070;4.974;2023-07-20T02:26:54;9.82;;;3.20;;
33501;SDS011;22396;51.070;4.974;2023-07-20T02:29:19;11.93;;;2.88;;
33501;SDS011;22396;51.070;4.974;2023-07-20T02:31:45;6.15;;;2.00;;
33501;SDS011;22396;51.070;4.974;2023-07-20T02:34:10;8.25;;;3.10;;
33501;SDS011;22396;51.070;4.974;2023-07-20T02:36:36;6.95;;;2.60;;
33501;SDS011;22396;51.070;4.974;2023-07-20T02:39:01;8.15;;;2.40;;
33501;SDS011;22396;51.070;4.974;2023-07-20T02:41:32;13.63;;;2.92;;
33501;SDS011;22396;51.070;4.974;2023-07-20T02:43:58;4.93;;;2.40;;
33501;SDS011;22396;51.070;4.974;2023-07-20T02:46:23;7.53;;;3.00;;
33501;SDS011;22396;51.070;4.974;2023-07-20T02:48:51;6.13;;;2.33;;
33501;SDS011;22396;51.070;4.974;2023-07-20T02:51:16;6.38;;;2.60;;
33501;SDS011;22396;51.070;4.974;2023-07-20T02:53:42;7.20;;;2.83;;
33501;SDS011;22396;51.070;4.974;2023-07-20T02:56:07;6.07;;;2.72;;
33501;SDS011;22396;51.070;4.974;2023-07-20T02:58:33;9.18;;;3.65;;
33501;SDS011;22396;51.070;4.974;2023-07-20T03:01:02;7.72;;;2.85;;
33501;SDS011;22396;51.070;4.974;2023-07-20T03:03:29;6.40;;;2.72;;
33501;SDS011;22396;51.070;4.974;2023-07-20T03:05:55;8.38;;;2.70;;
33501;SDS011;22396;51.070;4.974;2023-07-20T03:08:21;8.80;;;2.78;;
33501;SDS011;22396;51.070;4.974;2023-07-20T03:10:46;9.80;;;2.70;;
33501;SDS011;22396;51.070;4.974;2023-07-20T03:13:12;6.22;;;2.63;;
33501;SDS011;22396;51.070;4.974;2023-07-20T03:15:39;4.85;;;2.45;;
33501;SDS011;22396;51.070;4.974;2023-07-20T03:18:04;6.10;;;2.60;;
33501;SDS011;22396;51.070;4.974;2023-07-20T03:20:30;8.75;;;2.72;;
33501;SDS011;22396;51.070;4.974;2023-07-20T03:22:56;7.40;;;2.85;;
33501;SDS011;22396;51.070;4.974;2023-07-20T03:25:21;5.47;;;2.65;;
33501;SDS011;22396;51.070;4.974;2023-07-20T03:27:49;8.93;;;3.25;;
33501;SDS011;22396;51.070;4.974;2023-07-20T03:30:14;10.27;;;3.50;;
33501;SDS011;22396;51.070;4.974;2023-07-20T03:32:40;7.68;;;2.72;;
33501;SDS011;22396;51.070;4.974;2023-07-20T03:35:05;10.02;;;2.97;;
33501;SDS011;22396;51.070;4.974;2023-07-20T03:37:31;6.65;;;3.22;;
33501;SDS011;22396;51.070;4.974;2023-07-20T03:39:56;5.07;;;2.80;;
33501;SDS011;22396;51.070;4.974;2023-07-20T03:42:22;11.27;;;2.58;;
33501;SDS011;22396;51.070;4.974;2023-07-20T03:44:47;5.65;;;2.60;;
33501;SDS011;22396;51.070;4.974;2023-07-20T03:47:13;10.05;;;2.70;;
33501;SDS011;22396;51.070;4.974;2023-07-20T03:49:38;9.10;;;3.63;;
33501;SDS011;22396;51.070;4.974;2023-07-20T03:52:06;9.93;;;2.47;;
33501;SDS011;22396;51.070;4.974;2023-07-20T03:54:32;8.55;;;2.97;;
33501;SDS011;22396;51.070;4.974;2023-07-20T03:56:57;7.55;;;3.03;;
33501;SDS011;22396;51.070;4.974;2023-07-20T03:59:23;10.10;;;3.15;;
33501;SDS011;22396;51.070;4.974;2023-07-20T04:01:48;4.75;;;2.58;;
33501;SDS011;22396;51.070;4.974;2023-07-20T04:04:15;6.53;;;3.10;;
33501;SDS011;22396;51.070;4.974;2023-07-20T04:06:41;6.22;;;2.90;;
33501;SDS011;22396;51.070;4.974;2023-07-20T04:09:09;8.45;;;3.45;;
33501;SDS011;22396;51.070;4.974;2023-07-20T04:11:35;9.65;;;3.40;;
33501;SDS011;22396;51.070;4.974;2023-07-20T04:14:00;9.48;;;3.80;;
33501;SDS011;22396;51.070;4.974;2023-07-20T04:16:28;5.63;;;2.83;;
33501;SDS011;22396;51.070;4.974;2023-07-20T04:18:59;6.22;;;3.13;;
33501;SDS011;22396;51.070;4.974;2023-07-20T04:21:26;9.02;;;3.20;;
33501;SDS011;22396;51.070;4.974;2023-07-20T04:23:51;5.90;;;2.92;;
33501;SDS011;22396;51.070;4.974;2023-07-20T04:26:16;7.22;;;3.15;;
33501;SDS011;22396;51.070;4.974;2023-07-20T04:28:42;9.05;;;3.13;;
33501;SDS011;22396;51.070;4.974;2023-07-20T04:31:10;10.63;;;3.38;;
33501;SDS011;22396;51.070;4.974;2023-07-20T04:33:36;9.25;;;3.85;;
33501;SDS011;22396;51.070;4.974;2023-07-20T04:36:02;9.05;;;3.35;;
33501;SDS011;22396;51.070;4.974;2023-07-20T04:38:27;7.00;;;3.47;;
33501;SDS011;22396;51.070;4.974;2023-07-20T04:40:53;11.50;;;4.28;;
33501;SDS011;22396;51.070;4.974;2023-07-20T04:43:18;7.20;;;3.08;;
33501;SDS011;22396;51.070;4.974;2023-07-20T04:45:43;9.40;;;3.88;;
33501;SDS011;22396;51.070;4.974;2023-07-20T04:48:11;9.15;;;4.30;;
33501;SDS011;22396;51.070;4.974;2023-07-20T04:50:37;7.97;;;4.05;;
33501;SDS011;22396;51.070;4.974;2023-07-20T04:53:03;9.00;;;4.20;;
33501;SDS011;22396;51.070;4.974;2023-07-20T04:55:31;12.68;;;4.47;;
33501;SDS011;22396;51.070;4.974;2023-07-20T04:57:58;8.30;;;4.20;;
33501;SDS011;22396;51.070;4.974;2023-07-20T05:00:24;9.00;;;4.53;;
33501;SDS011;22396;51.070;4.974;2023-07-20T05:02:50;12.93;;;5.00;;
33501;SDS011;22396;51.070;4.974;2023-07-20T05:05:15;10.32;;;4.72;;
33501;SDS011;22396;51.070;4.974;2023-07-20T05:07:40;8.98;;;4.75;;
33501;SDS011;22396;51.070;4.974;2023-07-20T05:10:06;14.50;;;5.63;;
33501;SDS011;22396;51.070;4.974;2023-07-20T05:12:31;11.48;;;5.50;;
33501;SDS011;22396;51.070;4.974;2023-07-20T05:14:57;11.50;;;5.07;;
33501;SDS011;22396;51.070;4.974;2023-07-20T05:17:25;11.23;;;6.07;;
33501;SDS011;22396;51.070;4.974;2023-07-20T05:19:50;12.15;;;5.93;;
33501;SDS011;22396;51.070;4.974;2023-07-20T05:22:16;9.55;;;5.47;;
33501;SDS011;22396;51.070;4.974;2023-07-20T05:24:41;14.20;;;6.53;;
33501;SDS011;22396;51.070;4.974;2023-07-20T05:27:10;14.73;;;7.25;;
33501;SDS011;22396;51.070;4.974;2023-07-20T05:29:35;16.05;;;7.18;;
33501;SDS011;22396;51.070;4.974;2023-07-20T05:32:00;17.02;;;7.78;;
33501;SDS011;22396;51.070;4.974;2023-07-20T05:34:26;12.93;;;7.20;;
33501;SDS011;22396;51.070;4.974;2023-07-20T05:36:53;14.13;;;6.80;;
33501;SDS011;22396;51.070;4.974;2023-07-20T05:39:18;14.93;;;7.68;;
33501;SDS011;22396;51.070;4.974;2023-07-20T05:41:44;16.65;;;7.78;;
33501;SDS011;22396;51.070;4.974;2023-07-20T05:44:12;14.48;;;7.15;;
33501;SDS011;22396;51.070;4.974;2023-07-20T05:46:40;13.70;;;7.22;;
33501;SDS011;22396;51.070;4.974;2023-07-20T05:49:05;16.33;;;7.25;;
33501;SDS011;22396;51.070;4.974;2023-07-20T05:51:31;16.95;;;8.10;;
33501;SDS011;22396;51.070;4.974;2023-07-20T05:53:56;14.77;;;6.63;;
33501;SDS011;22396;51.070;4.974;2023-07-20T05:56:21;15.65;;;7.30;;
33501;SDS011;22396;51.070;4.974;2023-07-20T05:58:46;13.38;;;6.78;;
33501;SDS011;22396;51.070;4.974;2023-07-20T06:01:12;18.13;;;7.35;;
33501;SDS011;22396;51.070;4.974;2023-07-20T06:03:37;14.00;;;7.18;;
33501;SDS011;22396;51.070;4.974;2023-07-20T06:06:02;14.52;;;8.05;;
33501;SDS011;22396;51.070;4.974;2023-07-20T06:08:29;18.83;;;7.70;;
33501;SDS011;22396;51.070;4.974;2023-07-20T06:10:54;13.80;;;7.60;;
33501;SDS011;22396;51.070;4.974;2023-07-20T06:13:20;11.68;;;6.78;;
33501;SDS011;22396;51.070;4.974;2023-07-20T06:15:45;14.63;;;7.55;;
33501;SDS011;22396;51.070;4.974;2023-07-20T06:18:10;15.23;;;7.57;;
33501;SDS011;22396;51.070;4.974;2023-07-20T06:20:36;16.20;;;7.55;;
33501;SDS011;22396;51.070;4.974;2023-07-20T06:23:01;17.20;;;7.57;;
33501;SDS011;22396;51.070;4.974;2023-07-20T06:25:26;18.17;;;7.93;;
33501;SDS011;22396;51.070;4.974;2023-07-20T06:27:51;17.88;;;8.20;;
33501;SDS011;22396;51.070;4.974;2023-07-20T06:30:17;14.60;;;7.50;;
33501;SDS011;22396;51.070;4.974;2023-07-20T06:32:46;20.98;;;9.00;;
33501;SDS011;22396;51.070;4.974;2023-07-20T06:35:11;19.38;;;8.65;;
33501;SDS011;22396;51.070;4.974;2023-07-20T06:37:36;17.38;;;8.45;;
33501;SDS011;22396;51.070;4.974;2023-07-20T06:40:02;19.08;;;8.40;;
33501;SDS011;22396;51.070;4.974;2023-07-20T06:42:28;15.63;;;8.18;;
33501;SDS011;22396;51.070;4.974;2023-07-20T06:44:54;12.65;;;6.47;;
33501;SDS011;22396;51.070;4.974;2023-07-20T06:47:19;19.13;;;8.52;;
33501;SDS011;22396;51.070;4.974;2023-07-20T06:49:45;10.60;;;6.20;;
33501;SDS011;22396;51.070;4.974;2023-07-20T06:52:10;13.10;;;6.35;;
33501;SDS011;22396;51.070;4.974;2023-07-20T06:54:35;11.95;;;5.55;;
33501;SDS011;22396;51.070;4.974;2023-07-20T06:57:01;14.25;;;7.15;;
33501;SDS011;22396;51.070;4.974;2023-07-20T06:59:26;11.45;;;5.55;;
33501;SDS011;22396;51.070;4.974;2023-07-20T07:01:51;8.18;;;4.60;;
33501;SDS011;22396;51.070;4.974;2023-07-20T07:04:16;7.50;;;4.05;;
33501;SDS011;22396;51.070;4.974;2023-07-20T07:06:42;7.55;;;3.65;;
33501;SDS011;22396;51.070;4.974;2023-07-20T07:09:08;9.70;;;4.95;;
33501;SDS011;22396;51.070;4.974;2023-07-20T07:11:33;9.43;;;4.85;;
33501;SDS011;22396;51.070;4.974;2023-07-20T07:13:59;7.75;;;4.38;;
33501;SDS011;22396;51.070;4.974;2023-07-20T07:16:24;8.80;;;4.95;;
33501;SDS011;22396;51.070;4.974;2023-07-20T07:18:50;7.65;;;4.55;;
33501;SDS011;22396;51.070;4.974;2023-07-20T07:21:15;6.47;;;3.75;;
33501;SDS011;22396;51.070;4.974;2023-07-20T07:23:41;6.28;;;4.20;;
33501;SDS011;22396;51.070;4.974;2023-07-20T07:26:06;9.73;;;3.70;;
33501;SDS011;22396;51.070;4.974;2023-07-20T07:28:31;10.73;;;5.93;;
33501;SDS011;22396;51.070;4.974;2023-07-20T07:30:59;7.15;;;4.20;;
33501;SDS011;22396;51.070;4.974;2023-07-20T07:33:25;9.30;;;5.53;;
33501;SDS011;22396;51.070;4.974;2023-07-20T07:35:50;9.38;;;5.65;;
33501;SDS011;22396;51.070;4.974;2023-07-20T07:38:19;9.60;;;6.22;;
33501;SDS011;22396;51.070;4.974;2023-07-20T07:40:44;10.35;;;5.88;;
33501;SDS011;22396;51.070;4.974;2023-07-20T07:43:09;9.40;;;5.18;;
33501;SDS011;22396;51.070;4.974;2023-07-20T07:45:35;11.25;;;6.30;;
33501;SDS011;22396;51.070;4.974;2023-07-20T07:48:01;8.82;;;5.18;;
33501;SDS011;22396;51.070;4.974;2023-07-20T07:50:27;7.72;;;5.25;;
33501;SDS011;22396;51.070;4.974;2023-07-20T07:52:52;8.07;;;4.70;;
33501;SDS011;22396;51.070;4.974;2023-07-20T07:55:17;9.52;;;4.85;;
33501;SDS011;22396;51.070;4.974;2023-07-20T07:57:43;12.43;;;6.95;;
33501;SDS011;22396;51.070;4.974;2023-07-20T08:00:08;9.27;;;5.15;;
33501;SDS011;22396;51.070;4.974;2023-07-20T08:02:39;12.40;;;5.75;;
33501;SDS011;22396;51.070;4.974;2023-07-20T08:05:04;4.85;;;3.47;;
33501;SDS011;22396;51.070;4.974;2023-07-20T08:07:30;6.00;;;3.95;;
33501;SDS011;22396;51.070;4.974;2023-07-20T08:09:55;6.30;;;3.28;;
33501;SDS011;22396;51.070;4.974;2023-07-20T08:12:20;5.60;;;2.58;;
33501;SDS011;22396;51.070;4.974;2023-07-20T08:14:46;5.00;;;3.30;;
33501;SDS011;22396;51.070;4.974;2023-07-20T08:17:11;6.28;;;3.00;;
33501;SDS011;22396;51.070;4.974;2023-07-20T08:19:36;4.22;;;3.08;;
33501;SDS011;22396;51.070;4.974;2023-07-20T08:22:02;5.95;;;2.85;;
33501;SDS011;22396;51.070;4.974;2023-07-20T08:24:31;6.65;;;3.83;;
33501;SDS011;22396;51.070;4.974;2023-07-20T08:26:56;4.60;;;2.63;;
33501;SDS011;22396;51.070;4.974;2023-07-20T08:29:21;5.68;;;4.03;;
33501;SDS011;22396;51.070;4.974;2023-07-20T08:31:46;5.03;;;3.50;;
33501;SDS011;22396;51.070;4.974;2023-07-20T08:34:16;7.45;;;3.47;;
33501;SDS011;22396;51.070;4.974;2023-07-20T08:36:42;4.40;;;2.60;;
33501;SDS011;22396;51.070;4.974;2023-07-20T08:39:07;5.97;;;3.13;;
33501;SDS011;22396;51.070;4.974;2023-07-20T08:41:33;4.45;;;2.63;;
33501;SDS011;22396;51.070;4.974;2023-07-20T08:43:59;3.83;;;3.05;;
33501;SDS011;22396;51.070;4.974;2023-07-20T08:46:24;4.30;;;2.60;;
33501;SDS011;22396;51.070;4.974;2023-07-20T08:48:52;4.35;;;2.70;;
33501;SDS011;22396;51.070;4.974;2023-07-20T08:51:18;3.63;;;2.67;;
33501;SDS011;22396;51.070;4.974;2023-07-20T08:53:45;4.45;;;2.45;;
33501;SDS011;22396;51.070;4.974;2023-07-20T08:56:10;2.85;;;2.22;;
33501;SDS011;22396;51.070;4.974;2023-07-20T08:58:36;4.60;;;3.35;;
33501;SDS011;22396;51.070;4.974;2023-07-20T09:01:02;3.95;;;2.50;;
33501;SDS011;22396;51.070;4.974;2023-07-20T09:03:28;3.88;;;2.65;;
33501;SDS011;22396;51.070;4.974;2023-07-20T09:05:53;4.18;;;2.50;;
33501;SDS011;22396;51.070;4.974;2023-07-20T09:08:18;4.25;;;2.80;;
33501;SDS011;22396;51.070;4.974;2023-07-20T09:10:44;3.10;;;1.98;;
33501;SDS011;22396;51.070;4.974;2023-07-20T09:13:15;4.25;;;3.10;;
33501;SDS011;22396;51.070;4.974;2023-07-20T09:15:45;5.28;;;3.28;;
33501;SDS011;22396;51.070;4.974;2023-07-20T09:18:10;4.07;;;2.80;;
33501;SDS011;22396;51.070;4.974;2023-07-20T09:20:36;6.07;;;3.30;;
33501;SDS011;22396;51.070;4.974;2023-07-20T09:23:04;4.53;;;3.38;;
33501;SDS011;22396;51.070;4.974;2023-07-20T09:25:29;4.47;;;2.92;;
33501;SDS011;22396;51.070;4.974;2023-07-20T09:27:55;3.85;;;2.03;;
33501;SDS011;22396;51.070;4.974;2023-07-20T09:30:21;3.70;;;1.90;;
33501;SDS011;22396;51.070;4.974;2023-07-20T09:32:49;3.92;;;2.35;;
33501;SDS011;22396;51.070;4.974;2023-07-20T09:35:19;2.85;;;1.90;;
33501;SDS011;22396;51.070;4.974;2023-07-20T09:38:03;3.60;;;1.67;;
33501;SDS011;22396;51.070;4.974;2023-07-20T09:40:29;3.30;;;2.20;;
33501;SDS011;22396;51.070;4.974;2023-07-20T09:42:54;2.30;;;1.80;;
33501;SDS011;22396;51.070;4.974;2023-07-20T09:45:29;9.07;;;2.40;;
33501;SDS011;22396;51.070;4.974;2023-07-20T09:48:02;4.47;;;1.95;;
33501;SDS011;22396;51.070;4.974;2023-07-20T09:50:28;6.57;;;2.50;;
33501;SDS011;22396;51.070;4.974;2023-07-20T09:52:53;3.28;;;2.25;;
33501;SDS011;22396;51.070;4.974;2023-07-20T09:55:22;4.00;;;2.30;;
33501;SDS011;22396;51.070;4.974;2023-07-20T09:57:49;2.35;;;1.80;;
33501;SDS011;22396;51.070;4.974;2023-07-20T10:00:14;2.80;;;1.85;;
33501;SDS011;22396;51.070;4.974;2023-07-20T10:02:44;2.47;;;1.80;;
33501;SDS011;22396;51.070;4.974;2023-07-20T10:05:11;3.70;;;1.70;;
33501;SDS011;22396;51.070;4.974;2023-07-20T10:07:37;2.88;;;1.80;;
33501;SDS011;22396;51.070;4.974;2023-07-20T10:10:05;3.20;;;2.33;;
33501;SDS011;22396;51.070;4.974;2023-07-20T10:12:32;4.93;;;2.00;;
33501;SDS011;22396;51.070;4.974;2023-07-20T10:17:40;3.90;;;2.15;;
33501;SDS011;22396;51.070;4.974;2023-07-20T10:20:07;2.63;;;1.83;;
33501;SDS011;22396;51.070;4.974;2023-07-20T10:22:38;4.18;;;1.88;;
33501;SDS011;22396;51.070;4.974;2023-07-20T10:25:03;3.88;;;2.63;;
33501;SDS011;22396;51.070;4.974;2023-07-20T10:27:30;3.30;;;1.98;;
33501;SDS011;22396;51.070;4.974;2023-07-20T10:29:55;3.28;;;1.98;;
33501;SDS011;22396;51.070;4.974;2023-07-20T10:32:22;3.88;;;1.75;;
33501;SDS011;22396;51.070;4.974;2023-07-20T10:34:51;3.45;;;1.90;;
33501;SDS011;22396;51.070;4.974;2023-07-20T10:40:23;2.90;;;1.80;;
33501;SDS011;22396;51.070;4.974;2023-07-20T10:42:47;4.68;;;1.80;;
33501;SDS011;22396;51.070;4.974;2023-07-20T10:45:12;1.85;;;1.52;;
33501;SDS011;22396;51.070;4.974;2023-07-20T10:47:44;5.43;;;1.60;;
33501;SDS011;22396;51.070;4.974;2023-07-20T10:50:10;3.75;;;1.60;;
33501;SDS011;22396;51.070;4.974;2023-07-20T10:52:37;4.10;;;1.70;;
33501;SDS011;22396;51.070;4.974;2023-07-20T10:55:15;3.08;;;1.40;;
33501;SDS011;22396;51.070;4.974;2023-07-20T10:57:44;1.73;;;1.35;;
33501;SDS011;22396;51.070;4.974;2023-07-20T11:00:31;3.08;;;1.65;;
33501;SDS011;22396;51.070;4.974;2023-07-20T11:03:02;2.50;;;1.30;;
33501;SDS011;22396;51.070;4.974;2023-07-20T11:05:39;1.67;;;1.40;;
33501;SDS011;22396;51.070;4.974;2023-07-20T11:08:16;2.47;;;1.58;;
33501;SDS011;22396;51.070;4.974;2023-07-20T11:11:05;3.35;;;1.60;;
33501;SDS011;22396;51.070;4.974;2023-07-20T11:13:36;1.83;;;1.40;;
33501;SDS011;22396;51.070;4.974;2023-07-20T11:18:45;1.77;;;1.30;;
33501;SDS011;22396;51.070;4.974;2023-07-20T11:21:11;2.90;;;2.25;;
33501;SDS011;22396;51.070;4.974;2023-07-20T11:23:37;3.92;;;2.30;;
33501;SDS011;22396;51.070;4.974;2023-07-20T11:26:03;2.10;;;1.50;;
33501;SDS011;22396;51.070;4.974;2023-07-20T11:28:35;1.98;;;1.33;;
33501;SDS011;22396;51.070;4.974;2023-07-20T11:31:01;2.10;;;1.77;;
33501;SDS011;22396;51.070;4.974;2023-07-20T11:33:29;2.67;;;1.75;;
33501;SDS011;22396;51.070;4.974;2023-07-20T11:35:54;2.75;;;1.50;;
33501;SDS011;22396;51.070;4.974;2023-07-20T11:38:23;3.40;;;1.90;;
33501;SDS011;22396;51.070;4.974;2023-07-20T11:40:49;2.80;;;1.65;;
33501;SDS011;22396;51.070;4.974;2023-07-20T11:43:14;2.95;;;1.48;;
33501;SDS011;22396;51.070;4.974;2023-07-20T11:45:40;2.50;;;1.73;;
33501;SDS011;22396;51.070;4.974;2023-07-20T11:48:05;4.25;;;1.70;;
33501;SDS011;22396;51.070;4.974;2023-07-20T11:50:31;2.35;;;1.75;;
33501;SDS011;22396;51.070;4.974;2023-07-20T11:52:56;2.53;;;1.80;;
33501;SDS011;22396;51.070;4.974;2023-07-20T11:55:22;2.75;;;1.60;;
33501;SDS011;22396;51.070;4.974;2023-07-20T11:58:05;3.22;;;1.52;;
33501;SDS011;22396;51.070;4.974;2023-07-20T12:00:31;4.65;;;1.88;;
33501;SDS011;22396;51.070;4.974;2023-07-20T12:02:57;1.98;;;1.33;;
33501;SDS011;22396;51.070;4.974;2023-07-20T12:05:22;2.13;;;1.40;;
33501;SDS011;22396;51.070;4.974;2023-07-20T12:07:50;3.35;;;1.70;;
33501;SDS011;22396;51.070;4.974;2023-07-20T12:10:22;1.60;;;1.40;;
33501;SDS011;22396;51.070;4.974;2023-07-20T12:12:48;3.45;;;1.70;;
33501;SDS011;22396;51.070;4.974;2023-07-20T12:17:45;4.45;;;1.67;;
33501;SDS011;22396;51.070;4.974;2023-07-20T12:20:11;1.33;;;1.05;;
33501;SDS011;22396;51.070;4.974;2023-07-20T12:22:40;2.40;;;1.48;;
33501;SDS011;22396;51.070;4.974;2023-07-20T12:25:06;2.83;;;1.55;;
33501;SDS011;22396;51.070;4.974;2023-07-20T12:27:32;1.88;;;1.20;;
33501;SDS011;22396;51.070;4.974;2023-07-20T12:29:57;2.58;;;1.48;;
33501;SDS011;22396;51.070;4.974;2023-07-20T12:32:29;1.60;;;1.20;;
33501;SDS011;22396;51.070;4.974;2023-07-20T12:34:54;1.95;;;1.30;;
33501;SDS011;22396;51.070;4.974;2023-07-20T12:37:20;2.67;;;1.10;;
33501;SDS011;22396;51.070;4.974;2023-07-20T12:39:45;2.22;;;1.42;;
33501;SDS011;22396;51.070;4.974;2023-07-20T12:42:12;4.25;;;1.85;;
33501;SDS011;22396;51.070;4.974;2023-07-20T12:44:37;1.90;;;1.40;;
33501;SDS011;22396;51.070;4.974;2023-07-20T12:47:02;4.00;;;1.58;;
33501;SDS011;22396;51.070;4.974;2023-07-20T12:49:28;2.65;;;1.50;;
33501;SDS011;22396;51.070;4.974;2023-07-20T12:51:53;4.15;;;1.70;;
33501;SDS011;22396;51.070;4.974;2023-07-20T12:54:18;2.33;;;1.45;;
33501;SDS011;22396;51.070;4.974;2023-07-20T12:56:44;2.47;;;1.40;;
33501;SDS011;22396;51.070;4.974;2023-07-20T12:59:09;1.63;;;1.27;;
33501;SDS011;22396;51.070;4.974;2023-07-20T13:01:34;2.05;;;1.40;;
33501;SDS011;22396;51.070;4.974;2023-07-20T13:04:00;2.63;;;1.33;;
33501;SDS011;22396;51.070;4.974;2023-07-20T13:06:25;1.80;;;1.30;;
33501;SDS011;22396;51.070;4.974;2023-07-20T13:08:50;2.10;;;1.40;;
33501;SDS011;22396;51.070;4.974;2023-07-20T13:11:20;1.75;;;1.40;;
33501;SDS011;22396;51.070;4.974;2023-07-20T13:13:45;2.38;;;1.25;;
33501;SDS011;22396;51.070;4.974;2023-07-20T13:16:14;1.60;;;1.20;;
33501;SDS011;22396;51.070;4.974;2023-07-20T13:18:40;2.17;;;0.98;;
33501;SDS011;22396;51.070;4.974;2023-07-20T13:21:05;1.98;;;1.13;;
33501;SDS011;22396;51.070;4.974;2023-07-20T13:23:36;2.53;;;1.00;;
33501;SDS011;22396;51.070;4.974;2023-07-20T13:26:04;2.30;;;1.30;;
33501;SDS011;22396;51.070;4.974;2023-07-20T13:28:30;2.05;;;1.48;;
33501;SDS011;22396;51.070;4.974;2023-07-20T13:30:55;2.13;;;1.20;;
33501;SDS011;22396;51.070;4.974;2023-07-20T13:33:20;2.90;;;1.40;;
33501;SDS011;22396;51.070;4.974;2023-07-20T13:35:46;3.05;;;1.25;;
33501;SDS011;22396;51.070;4.974;2023-07-20T13:38:11;2.33;;;1.00;;
33501;SDS011;22396;51.070;4.974;2023-07-20T13:40:37;5.03;;;1.10;;
33501;SDS011;22396;51.070;4.974;2023-07-20T13:43:02;1.92;;;0.90;;
33501;SDS011;22396;51.070;4.974;2023-07-20T13:45:27;1.50;;;1.00;;
33501;SDS011;22396;51.070;4.974;2023-07-20T13:47:52;2.03;;;1.00;;
33501;SDS011;22396;51.070;4.974;2023-07-20T13:50:18;3.95;;;1.27;;
33501;SDS011;22396;51.070;4.974;2023-07-20T13:52:43;1.40;;;1.10;;
33501;SDS011;22396;51.070;4.974;2023-07-20T13:55:11;1.77;;;0.93;;
33501;SDS011;22396;51.070;4.974;2023-07-20T13:57:36;1.42;;;1.05;;
33501;SDS011;22396;51.070;4.974;2023-07-20T14:00:03;2.13;;;1.10;;
33501;SDS011;22396;51.070;4.974;2023-07-20T14:02:29;0.95;;;0.80;;
33501;SDS011;22396;51.070;4.974;2023-07-20T14:04:54;1.17;;;0.70;;
33501;SDS011;22396;51.070;4.974;2023-07-20T14:07:23;3.35;;;0.90;;
33501;SDS011;22396;51.070;4.974;2023-07-20T14:09:48;5.00;;;1.27;;
33501;SDS011;22396;51.070;4.974;2023-07-20T14:12:13;2.25;;;1.30;;
33501;SDS011;22396;51.070;4.974;2023-07-20T14:14:39;7.93;;;0.90;;
33501;SDS011;22396;51.070;4.974;2023-07-20T14:17:12;1.52;;;0.88;;
33501;SDS011;22396;51.070;4.974;2023-07-20T14:19:37;1.17;;;0.73;;
33501;SDS011;22396;51.070;4.974;2023-07-20T14:22:03;1.80;;;1.10;;
33501;SDS011;22396;51.070;4.974;2023-07-20T14:24:29;1.20;;;0.93;;
33501;SDS011;22396;51.070;4.974;2023-07-20T14:26:56;1.20;;;0.70;;
33501;SDS011;22396;51.070;4.974;2023-07-20T14:29:22;1.38;;;0.82;;
33501;SDS011;22396;51.070;4.974;2023-07-20T14:31:47;2.97;;;0.90;;
33501;SDS011;22396;51.070;4.974;2023-07-20T14:34:17;5.65;;;0.88;;
33501;SDS011;22396;51.070;4.974;2023-07-20T14:36:44;2.30;;;0.90;;
33501;SDS011;22396;51.070;4.974;2023-07-20T14:39:09;1.13;;;0.90;;
33501;SDS011;22396;51.070;4.974;2023-07-20T14:41:34;1.80;;;1.00;;
33501;SDS011;22396;51.070;4.974;2023-07-20T14:43:59;1.15;;;0.90;;
33501;SDS011;22396;51.070;4.974;2023-07-20T14:46:25;1.35;;;1.00;;
33501;SDS011;22396;51.070;4.974;2023-07-20T14:48:50;1.55;;;1.10;;
33501;SDS011;22396;51.070;4.974;2023-07-20T14:51:19;1.17;;;0.90;;
33501;SDS011;22396;51.070;4.974;2023-07-20T14:53:44;1.75;;;1.00;;
33501;SDS011;22396;51.070;4.974;2023-07-20T14:56:10;3.10;;;1.10;;
33501;SDS011;22396;51.070;4.974;2023-07-20T14:58:38;3.08;;;1.20;;
33501;SDS011;22396;51.070;4.974;2023-07-20T15:01:03;1.75;;;1.20;;
33501;SDS011;22396;51.070;4.974;2023-07-20T15:03:28;1.25;;;0.90;;